sensor_id;sensor_type;location;lat;lon;timestamp;P1;durP1;ratioP1;P2;durP2;ratioP2
78931;SDS011;68331;53.362;55.932;2023-04-15T00:00:43;3.67;;;1.85;;
78931;SDS011;68331;53.362;55.932;2023-04-15T00:03:09;3.13;;;2.85;;
78931;SDS011;68331;53.362;55.932;2023-04-15T00:05:35;2.13;;;1.90;;
78931;SDS011;68331;53.362;55.932;2023-04-15T00:08:01;3.25;;;1.88;;
78931;SDS011;68331;53.362;55.932;2023-04-15T00:10:27;2.83;;;2.55;;
78931;SDS011;68331;53.362;55.932;2023-04-15T00:12:53;2.60;;;2.30;;
78931;SDS011;68331;53.362;55.932;2023-04-15T00:15:19;4.72;;;2.40;;
78931;SDS011;68331;53.362;55.932;2023-04-15T00:17:45;7.53;;;2.95;;
78931;SDS011;68331;53.362;55.932;2023-04-15T00:20:12;7.70;;;4.18;;
78931;SDS011;68331;53.362;55.932;2023-04-15T00:22:38;10.63;;;4.78;;
78931;SDS011;68331;53.362;55.932;2023-04-15T00:25:04;14.88;;;5.68;;
78931;SDS011;68331;53.362;55.932;2023-04-15T00:27:29;10.80;;;4.03;;
78931;SDS011;68331;53.362;55.932;2023-04-15T00:29:56;4.50;;;3.38;;
78931;SDS011;68331;53.362;55.932;2023-04-15T00:32:22;5.50;;;3.78;;
78931;SDS011;68331;53.362;55.932;2023-04-15T00:34:48;11.10;;;4.97;;
78931;SDS011;68331;53.362;55.932;2023-04-15T00:37:15;11.60;;;4.72;;
78931;SDS011;68331;53.362;55.932;2023-04-15T00:39:41;11.00;;;4.97;;
78931;SDS011;68331;53.362;55.932;2023-04-15T00:42:07;12.38;;;4.78;;
78931;SDS011;68331;53.362;55.932;2023-04-15T00:44:33;7.15;;;3.92;;
78931;SDS011;68331;53.362;55.932;2023-04-15T00:46:59;6.70;;;3.20;;
78931;SDS011;68331;53.362;55.932;2023-04-15T00:49:26;3.58;;;3.00;;
78931;SDS011;68331;53.362;55.932;2023-04-15T00:51:53;4.82;;;2.53;;
78931;SDS011;68331;53.362;55.932;2023-04-15T00:54:19;3.63;;;2.33;;
78931;SDS011;68331;53.362;55.932;2023-04-15T00:56:46;3.92;;;1.98;;
78931;SDS011;68331;53.362;55.932;2023-04-15T00:59:12;4.15;;;2.13;;
78931;SDS011;68331;53.362;55.932;2023-04-15T01:01:39;2.50;;;2.22;;
78931;SDS011;68331;53.362;55.932;2023-04-15T01:04:05;3.65;;;1.88;;
78931;SDS011;68331;53.362;55.932;2023-04-15T01:06:34;2.70;;;1.88;;
78931;SDS011;68331;53.362;55.932;2023-04-15T01:09:01;2.10;;;1.92;;
78931;SDS011;68331;53.362;55.932;2023-04-15T01:11:27;3.13;;;2.67;;
78931;SDS011;68331;53.362;55.932;2023-04-15T01:13:54;1.85;;;1.75;;
78931;SDS011;68331;53.362;55.932;2023-04-15T01:16:21;3.85;;;2.15;;
78931;SDS011;68331;53.362;55.932;2023-04-15T01:18:47;2.50;;;2.30;;
78931;SDS011;68331;53.362;55.932;2023-04-15T01:21:13;2.20;;;2.00;;
78931;SDS011;68331;53.362;55.932;2023-04-15T01:23:39;2.03;;;1.92;;
78931;SDS011;68331;53.362;55.932;2023-04-15T01:26:06;2.60;;;2.38;;
78931;SDS011;68331;53.362;55.932;2023-04-15T01:28:33;4.25;;;2.00;;
78931;SDS011;68331;53.362;55.932;2023-04-15T01:31:12;2.28;;;2.08;;
78931;SDS011;68331;53.362;55.932;2023-04-15T01:33:39;2.30;;;2.10;;
78931;SDS011;68331;53.362;55.932;2023-04-15T01:36:25;2.50;;;2.28;;
78931;SDS011;68331;53.362;55.932;2023-04-15T01:38:52;3.35;;;2.28;;
78931;SDS011;68331;53.362;55.932;2023-04-15T01:41:29;3.60;;;2.40;;
78931;SDS011;68331;53.362;55.932;2023-04-15T01:43:57;3.08;;;2.10;;
78931;SDS011;68331;53.362;55.932;2023-04-15T01:46:24;4.10;;;2.67;;
78931;SDS011;68331;53.362;55.932;2023-04-15T01:48:53;3.30;;;1.88;;
78931;SDS011;68331;53.362;55.932;2023-04-15T01:51:20;4.00;;;2.38;;
78931;SDS011;68331;53.362;55.932;2023-04-15T01:53:49;2.67;;;2.47;;
78931;SDS011;68331;53.362;55.932;2023-04-15T01:56:16;2.75;;;2.38;;
78931;SDS011;68331;53.362;55.932;2023-04-15T01:58:44;2.65;;;2.17;;
78931;SDS011;68331;53.362;55.932;2023-04-15T02:01:11;2.95;;;2.13;;
78931;SDS011;68331;53.362;55.932;2023-04-15T02:03:39;4.70;;;2.47;;
78931;SDS011;68331;53.362;55.932;2023-04-15T02:06:06;5.45;;;2.50;;
78931;SDS011;68331;53.362;55.932;2023-04-15T02:08:33;2.97;;;2.35;;
78931;SDS011;68331;53.362;55.932;2023-04-15T02:11:00;4.55;;;2.30;;
78931;SDS011;68331;53.362;55.932;2023-04-15T02:13:28;2.55;;;2.35;;
78931;SDS011;68331;53.362;55.932;2023-04-15T02:15:57;3.13;;;2.30;;
78931;SDS011;68331;53.362;55.932;2023-04-15T02:18:25;5.10;;;2.28;;
78931;SDS011;68331;53.362;55.932;2023-04-15T02:20:52;2.50;;;2.30;;
78931;SDS011;68331;53.362;55.932;2023-04-15T02:23:20;5.95;;;2.72;;
78931;SDS011;68331;53.362;55.932;2023-04-15T02:25:47;2.50;;;2.20;;
78931;SDS011;68331;53.362;55.932;2023-04-15T02:28:14;3.15;;;2.33;;
78931;SDS011;68331;53.362;55.932;2023-04-15T02:30:46;2.90;;;2.50;;
78931;SDS011;68331;53.362;55.932;2023-04-15T02:33:14;2.97;;;2.75;;
78931;SDS011;68331;53.362;55.932;2023-04-15T02:35:41;3.60;;;3.30;;
78931;SDS011;68331;53.362;55.932;2023-04-15T02:38:11;4.10;;;2.35;;
78931;SDS011;68331;53.362;55.932;2023-04-15T02:40:38;3.75;;;2.42;;
78931;SDS011;68331;53.362;55.932;2023-04-15T02:43:07;3.95;;;2.95;;
78931;SDS011;68331;53.362;55.932;2023-04-15T02:45:34;3.47;;;2.50;;
78931;SDS011;68331;53.362;55.932;2023-04-15T02:48:04;5.93;;;2.67;;
78931;SDS011;68331;53.362;55.932;2023-04-15T02:50:32;4.65;;;2.90;;
78931;SDS011;68331;53.362;55.932;2023-04-15T02:52:59;3.13;;;2.78;;
78931;SDS011;68331;53.362;55.932;2023-04-15T02:55:29;2.70;;;2.50;;
78931;SDS011;68331;53.362;55.932;2023-04-15T02:57:56;3.00;;;2.78;;
78931;SDS011;68331;53.362;55.932;2023-04-15T03:00:27;4.68;;;3.03;;
78931;SDS011;68331;53.362;55.932;2023-04-15T03:02:58;3.00;;;2.55;;
78931;SDS011;68331;53.362;55.932;2023-04-15T03:05:28;2.63;;;2.25;;
78931;SDS011;68331;53.362;55.932;2023-04-15T03:07:56;4.13;;;2.70;;
78931;SDS011;68331;53.362;55.932;2023-04-15T03:10:23;3.10;;;2.20;;
78931;SDS011;68331;53.362;55.932;2023-04-15T03:12:51;3.13;;;2.15;;
78931;SDS011;68331;53.362;55.932;2023-04-15T03:15:20;5.20;;;1.95;;
78931;SDS011;68331;53.362;55.932;2023-04-15T03:17:50;7.32;;;3.33;;
78931;SDS011;68331;53.362;55.932;2023-04-15T03:20:18;2.53;;;2.33;;
78931;SDS011;68331;53.362;55.932;2023-04-15T03:22:47;3.63;;;2.15;;
78931;SDS011;68331;53.362;55.932;2023-04-15T03:25:14;4.25;;;2.25;;
78931;SDS011;68331;53.362;55.932;2023-04-15T03:27:42;3.58;;;2.40;;
78931;SDS011;68331;53.362;55.932;2023-04-15T03:30:11;4.57;;;3.45;;
78931;SDS011;68331;53.362;55.932;2023-04-15T03:35:07;2.78;;;2.47;;
78931;SDS011;68331;53.362;55.932;2023-04-15T03:37:35;3.15;;;2.83;;
78931;SDS011;68331;53.362;55.932;2023-04-15T03:40:02;3.20;;;2.45;;
78931;SDS011;68331;53.362;55.932;2023-04-15T03:42:29;4.60;;;2.70;;
78931;SDS011;68331;53.362;55.932;2023-04-15T03:44:57;3.60;;;3.03;;
78931;SDS011;68331;53.362;55.932;2023-04-15T03:47:24;4.13;;;2.67;;
78931;SDS011;68331;53.362;55.932;2023-04-15T03:49:51;2.67;;;2.45;;
78931;SDS011;68331;53.362;55.932;2023-04-15T03:52:18;4.53;;;2.55;;
78931;SDS011;68331;53.362;55.932;2023-04-15T03:54:46;3.35;;;2.35;;
78931;SDS011;68331;53.362;55.932;2023-04-15T03:57:13;4.03;;;2.30;;
78931;SDS011;68331;53.362;55.932;2023-04-15T04:02:09;4.93;;;2.97;;
78931;SDS011;68331;53.362;55.932;2023-04-15T04:04:37;3.50;;;3.30;;
78931;SDS011;68331;53.362;55.932;2023-04-15T04:07:04;4.07;;;2.42;;
78931;SDS011;68331;53.362;55.932;2023-04-15T04:14:26;2.85;;;2.42;;
78931;SDS011;68331;53.362;55.932;2023-04-15T04:16:55;4.97;;;1.98;;
78931;SDS011;68331;53.362;55.932;2023-04-15T04:19:23;3.72;;;2.42;;
78931;SDS011;68331;53.362;55.932;2023-04-15T04:21:50;3.00;;;2.65;;
78931;SDS011;68331;53.362;55.932;2023-04-15T04:24:18;2.85;;;2.65;;
78931;SDS011;68331;53.362;55.932;2023-04-15T04:26:46;4.20;;;3.90;;
78931;SDS011;68331;53.362;55.932;2023-04-15T04:29:15;3.13;;;2.83;;
78931;SDS011;68331;53.362;55.932;2023-04-15T04:31:42;3.55;;;2.33;;
78931;SDS011;68331;53.362;55.932;2023-04-15T04:36:37;2.47;;;2.28;;
78931;SDS011;68331;53.362;55.932;2023-04-15T04:39:04;3.28;;;2.33;;
78931;SDS011;68331;53.362;55.932;2023-04-15T04:41:31;2.67;;;1.77;;
78931;SDS011;68331;53.362;55.932;2023-04-15T04:43:59;6.07;;;2.45;;
78931;SDS011;68331;53.362;55.932;2023-04-15T04:46:26;2.30;;;2.10;;
78931;SDS011;68331;53.362;55.932;2023-04-15T04:48:53;2.60;;;2.10;;
78931;SDS011;68331;53.362;55.932;2023-04-15T04:51:20;1.95;;;1.85;;
78931;SDS011;68331;53.362;55.932;2023-04-15T04:53:47;7.80;;;2.63;;
78931;SDS011;68331;53.362;55.932;2023-04-15T04:56:14;2.92;;;1.75;;
78931;SDS011;68331;53.362;55.932;2023-04-15T04:58:42;4.43;;;2.45;;
78931;SDS011;68331;53.362;55.932;2023-04-15T05:01:09;2.55;;;2.08;;
78931;SDS011;68331;53.362;55.932;2023-04-15T05:03:37;2.53;;;2.13;;
78931;SDS011;68331;53.362;55.932;2023-04-15T05:06:04;10.15;;;3.40;;
78931;SDS011;68331;53.362;55.932;2023-04-15T05:08:34;1.98;;;1.67;;
78931;SDS011;68331;53.362;55.932;2023-04-15T05:11:02;2.83;;;2.60;;
78931;SDS011;68331;53.362;55.932;2023-04-15T05:13:29;4.88;;;2.85;;
78931;SDS011;68331;53.362;55.932;2023-04-15T05:15:57;2.85;;;1.75;;
78931;SDS011;68331;53.362;55.932;2023-04-15T05:18:24;2.35;;;1.83;;
78931;SDS011;68331;53.362;55.932;2023-04-15T05:20:51;2.08;;;1.88;;
78931;SDS011;68331;53.362;55.932;2023-04-15T05:23:19;4.05;;;2.25;;
78931;SDS011;68331;53.362;55.932;2023-04-15T05:25:46;4.15;;;3.40;;
78931;SDS011;68331;53.362;55.932;2023-04-15T05:28:14;5.32;;;1.90;;
78931;SDS011;68331;53.362;55.932;2023-04-15T05:30:41;2.33;;;1.63;;
78931;SDS011;68331;53.362;55.932;2023-04-15T05:33:09;6.82;;;2.60;;
78931;SDS011;68331;53.362;55.932;2023-04-15T05:35:37;4.45;;;3.17;;
78931;SDS011;68331;53.362;55.932;2023-04-15T05:38:04;3.90;;;1.95;;
78931;SDS011;68331;53.362;55.932;2023-04-15T05:40:32;3.72;;;1.83;;
78931;SDS011;68331;53.362;55.932;2023-04-15T05:42:59;2.92;;;2.72;;
78931;SDS011;68331;53.362;55.932;2023-04-15T05:45:26;1.90;;;1.80;;
78931;SDS011;68331;53.362;55.932;2023-04-15T05:47:54;3.08;;;1.92;;
78931;SDS011;68331;53.362;55.932;2023-04-15T05:50:22;3.72;;;3.42;;
78931;SDS011;68331;53.362;55.932;2023-04-15T05:52:49;2.13;;;2.03;;
78931;SDS011;68331;53.362;55.932;2023-04-15T05:55:16;4.40;;;2.42;;
78931;SDS011;68331;53.362;55.932;2023-04-15T05:57:44;2.90;;;1.65;;
78931;SDS011;68331;53.362;55.932;2023-04-15T06:00:11;2.58;;;1.85;;
78931;SDS011;68331;53.362;55.932;2023-04-15T06:02:38;1.63;;;1.52;;
78931;SDS011;68331;53.362;55.932;2023-04-15T06:05:05;3.25;;;2.22;;
78931;SDS011;68331;53.362;55.932;2023-04-15T06:07:36;5.10;;;2.20;;
78931;SDS011;68331;53.362;55.932;2023-04-15T06:10:03;4.35;;;2.15;;
78931;SDS011;68331;53.362;55.932;2023-04-15T06:12:31;6.85;;;3.38;;
78931;SDS011;68331;53.362;55.932;2023-04-15T06:14:58;3.83;;;3.58;;
78931;SDS011;68331;53.362;55.932;2023-04-15T06:17:26;12.35;;;3.53;;
78931;SDS011;68331;53.362;55.932;2023-04-15T06:19:53;7.78;;;3.30;;
78931;SDS011;68331;53.362;55.932;2023-04-15T06:22:22;3.15;;;2.95;;
78931;SDS011;68331;53.362;55.932;2023-04-15T06:24:49;5.15;;;3.75;;
78931;SDS011;68331;53.362;55.932;2023-04-15T06:27:17;4.82;;;3.10;;
78931;SDS011;68331;53.362;55.932;2023-04-15T06:29:44;3.47;;;2.47;;
78931;SDS011;68331;53.362;55.932;2023-04-15T06:32:11;3.13;;;2.45;;
78931;SDS011;68331;53.362;55.932;2023-04-15T06:34:39;4.97;;;2.85;;
78931;SDS011;68331;53.362;55.932;2023-04-15T06:37:06;3.13;;;2.90;;
78931;SDS011;68331;53.362;55.932;2023-04-15T06:39:35;5.30;;;2.88;;
78931;SDS011;68331;53.362;55.932;2023-04-15T06:42:02;2.63;;;2.42;;
78931;SDS011;68331;53.362;55.932;2023-04-15T06:44:30;2.53;;;2.33;;
78931;SDS011;68331;53.362;55.932;2023-04-15T06:46:57;5.20;;;2.88;;
78931;SDS011;68331;53.362;55.932;2023-04-15T06:49:24;2.35;;;2.15;;
78931;SDS011;68331;53.362;55.932;2023-04-15T06:51:52;4.65;;;2.22;;
78931;SDS011;68331;53.362;55.932;2023-04-15T06:54:19;5.68;;;2.08;;
78931;SDS011;68331;53.362;55.932;2023-04-15T06:56:47;2.55;;;2.30;;
78931;SDS011;68331;53.362;55.932;2023-04-15T06:59:14;3.85;;;2.80;;
78931;SDS011;68331;53.362;55.932;2023-04-15T07:01:42;4.13;;;2.38;;
78931;SDS011;68331;53.362;55.932;2023-04-15T07:04:09;6.63;;;2.20;;
78931;SDS011;68331;53.362;55.932;2023-04-15T07:06:37;2.38;;;2.17;;
78931;SDS011;68331;53.362;55.932;2023-04-15T07:09:05;6.03;;;2.35;;
78931;SDS011;68331;53.362;55.932;2023-04-15T07:11:32;6.00;;;2.40;;
78931;SDS011;68331;53.362;55.932;2023-04-15T07:16:28;1.60;;;1.50;;
78931;SDS011;68331;53.362;55.932;2023-04-15T07:18:55;2.95;;;1.27;;
78931;SDS011;68331;53.362;55.932;2023-04-15T07:21:23;2.42;;;1.90;;
78931;SDS011;68331;53.362;55.932;2023-04-15T07:23:51;2.92;;;2.13;;
78931;SDS011;68331;53.362;55.932;2023-04-15T07:26:18;2.28;;;1.85;;
78931;SDS011;68331;53.362;55.932;2023-04-15T07:28:45;2.10;;;1.92;;
78931;SDS011;68331;53.362;55.932;2023-04-15T07:31:13;1.35;;;1.25;;
78931;SDS011;68331;53.362;55.932;2023-04-15T07:36:08;2.30;;;2.20;;
78931;SDS011;68331;53.362;55.932;2023-04-15T07:38:36;1.67;;;1.38;;
78931;SDS011;68331;53.362;55.932;2023-04-15T07:41:03;5.90;;;1.73;;
78931;SDS011;68331;53.362;55.932;2023-04-15T07:43:30;1.58;;;1.30;;
78931;SDS011;68331;53.362;55.932;2023-04-15T07:45:58;3.88;;;2.33;;
78931;SDS011;68331;53.362;55.932;2023-04-15T07:50:53;2.67;;;2.47;;
78931;SDS011;68331;53.362;55.932;2023-04-15T07:53:20;1.83;;;1.70;;
78931;SDS011;68331;53.362;55.932;2023-04-15T07:55:47;2.85;;;1.73;;
78931;SDS011;68331;53.362;55.932;2023-04-15T07:58:15;5.95;;;2.05;;
78931;SDS011;68331;53.362;55.932;2023-04-15T08:00:42;2.33;;;1.90;;
78931;SDS011;68331;53.362;55.932;2023-04-15T08:03:10;1.95;;;1.67;;
78931;SDS011;68331;53.362;55.932;2023-04-15T08:05:37;3.05;;;1.85;;
78931;SDS011;68331;53.362;55.932;2023-04-15T08:08:05;2.55;;;1.88;;
78931;SDS011;68331;53.362;55.932;2023-04-15T08:10:32;4.70;;;2.33;;
78931;SDS011;68331;53.362;55.932;2023-04-15T08:15:27;2.30;;;1.73;;
78931;SDS011;68331;53.362;55.932;2023-04-15T08:17:55;1.83;;;1.63;;
78931;SDS011;68331;53.362;55.932;2023-04-15T08:20:22;2.92;;;2.50;;
78931;SDS011;68331;53.362;55.932;2023-04-15T08:22:50;3.42;;;1.95;;
78931;SDS011;68331;53.362;55.932;2023-04-15T08:25:18;10.63;;;2.45;;
78931;SDS011;68331;53.362;55.932;2023-04-15T08:27:48;2.92;;;1.83;;
78931;SDS011;68331;53.362;55.932;2023-04-15T08:30:16;2.75;;;1.67;;
78931;SDS011;68331;53.362;55.932;2023-04-15T08:32:46;5.10;;;2.20;;
78931;SDS011;68331;53.362;55.932;2023-04-15T08:35:15;2.13;;;2.03;;
78931;SDS011;68331;53.362;55.932;2023-04-15T08:37:44;6.80;;;1.52;;
78931;SDS011;68331;53.362;55.932;2023-04-15T08:40:11;3.58;;;1.90;;
78931;SDS011;68331;53.362;55.932;2023-04-15T08:45:14;2.60;;;2.38;;
78931;SDS011;68331;53.362;55.932;2023-04-15T08:47:43;3.45;;;2.60;;
78931;SDS011;68331;53.362;55.932;2023-04-15T08:50:13;4.80;;;1.77;;
78931;SDS011;68331;53.362;55.932;2023-04-15T08:52:42;2.05;;;1.88;;
78931;SDS011;68331;53.362;55.932;2023-04-15T08:55:09;4.50;;;2.33;;
78931;SDS011;68331;53.362;55.932;2023-04-15T08:57:39;1.83;;;1.73;;
78931;SDS011;68331;53.362;55.932;2023-04-15T09:00:06;5.25;;;2.60;;
78931;SDS011;68331;53.362;55.932;2023-04-15T09:02:34;2.92;;;2.25;;
78931;SDS011;68331;53.362;55.932;2023-04-15T09:05:02;2.88;;;1.63;;
78931;SDS011;68331;53.362;55.932;2023-04-15T09:07:34;8.60;;;2.22;;
78931;SDS011;68331;53.362;55.932;2023-04-15T09:10:02;6.25;;;2.60;;
78931;SDS011;68331;53.362;55.932;2023-04-15T09:12:32;24.23;;;4.18;;
78931;SDS011;68331;53.362;55.932;2023-04-15T09:15:01;3.10;;;1.50;;
78931;SDS011;68331;53.362;55.932;2023-04-15T09:17:29;1.85;;;1.75;;
78931;SDS011;68331;53.362;55.932;2023-04-15T09:22:36;1.95;;;1.85;;
78931;SDS011;68331;53.362;55.932;2023-04-15T09:27:47;4.35;;;1.95;;
78931;SDS011;68331;53.362;55.932;2023-04-15T09:30:16;2.95;;;2.22;;
78931;SDS011;68331;53.362;55.932;2023-04-15T09:35:15;2.95;;;2.75;;
78931;SDS011;68331;53.362;55.932;2023-04-15T09:37:42;7.32;;;1.95;;
78931;SDS011;68331;53.362;55.932;2023-04-15T09:40:10;2.13;;;1.92;;
78931;SDS011;68331;53.362;55.932;2023-04-15T09:42:56;2.70;;;2.17;;
78931;SDS011;68331;53.362;55.932;2023-04-15T09:45:23;3.50;;;2.22;;
78931;SDS011;68331;53.362;55.932;2023-04-15T09:47:51;5.57;;;2.22;;
78931;SDS011;68331;53.362;55.932;2023-04-15T09:50:19;3.08;;;1.83;;
78931;SDS011;68331;53.362;55.932;2023-04-15T09:52:46;2.53;;;1.80;;
78931;SDS011;68331;53.362;55.932;2023-04-15T09:55:13;1.90;;;1.58;;
78931;SDS011;68331;53.362;55.932;2023-04-15T09:57:42;3.42;;;2.70;;
78931;SDS011;68331;53.362;55.932;2023-04-15T10:00:12;3.60;;;1.73;;
78931;SDS011;68331;53.362;55.932;2023-04-15T10:02:40;6.43;;;2.38;;
78931;SDS011;68331;53.362;55.932;2023-04-15T10:05:09;3.78;;;2.05;;
78931;SDS011;68331;53.362;55.932;2023-04-15T10:07:37;4.18;;;2.10;;
78931;SDS011;68331;53.362;55.932;2023-04-15T10:10:06;4.72;;;2.33;;
78931;SDS011;68331;53.362;55.932;2023-04-15T10:12:36;3.38;;;1.75;;
78931;SDS011;68331;53.362;55.932;2023-04-15T10:15:04;2.38;;;2.10;;
78931;SDS011;68331;53.362;55.932;2023-04-15T10:17:32;3.95;;;2.45;;
78931;SDS011;68331;53.362;55.932;2023-04-15T10:20:01;2.55;;;2.17;;
78931;SDS011;68331;53.362;55.932;2023-04-15T10:22:30;2.70;;;2.38;;
78931;SDS011;68331;53.362;55.932;2023-04-15T10:24:58;1.95;;;1.75;;
78931;SDS011;68331;53.362;55.932;2023-04-15T10:27:26;2.55;;;2.28;;
78931;SDS011;68331;53.362;55.932;2023-04-15T10:29:55;5.03;;;2.40;;
78931;SDS011;68331;53.362;55.932;2023-04-15T10:32:23;5.45;;;2.72;;
78931;SDS011;68331;53.362;55.932;2023-04-15T10:34:51;5.35;;;2.28;;
78931;SDS011;68331;53.362;55.932;2023-04-15T10:37:21;3.83;;;2.25;;
78931;SDS011;68331;53.362;55.932;2023-04-15T10:39:49;6.25;;;2.45;;
78931;SDS011;68331;53.362;55.932;2023-04-15T10:42:17;3.08;;;1.95;;
78931;SDS011;68331;53.362;55.932;2023-04-15T10:44:48;3.63;;;2.85;;
78931;SDS011;68331;53.362;55.932;2023-04-15T10:47:19;3.58;;;1.77;;
78931;SDS011;68331;53.362;55.932;2023-04-15T10:49:48;5.78;;;2.58;;
78931;SDS011;68331;53.362;55.932;2023-04-15T10:52:24;1.85;;;1.75;;
78931;SDS011;68331;53.362;55.932;2023-04-15T10:55:12;2.75;;;2.03;;
78931;SDS011;68331;53.362;55.932;2023-04-15T10:57:43;4.03;;;3.03;;
78931;SDS011;68331;53.362;55.932;2023-04-15T11:00:12;3.38;;;3.08;;
78931;SDS011;68331;53.362;55.932;2023-04-15T11:02:45;4.03;;;1.90;;
78931;SDS011;68331;53.362;55.932;2023-04-15T11:05:14;5.53;;;2.15;;
78931;SDS011;68331;53.362;55.932;2023-04-15T11:12:43;5.22;;;2.45;;
78931;SDS011;68331;53.362;55.932;2023-04-15T11:20:55;4.68;;;2.60;;
78931;SDS011;68331;53.362;55.932;2023-04-15T11:23:34;3.67;;;2.20;;
78931;SDS011;68331;53.362;55.932;2023-04-15T11:26:07;3.13;;;2.70;;
78931;SDS011;68331;53.362;55.932;2023-04-15T11:28:38;10.77;;;2.78;;
78931;SDS011;68331;53.362;55.932;2023-04-15T11:31:10;2.55;;;2.35;;
78931;SDS011;68331;53.362;55.932;2023-04-15T11:33:46;5.30;;;2.15;;
78931;SDS011;68331;53.362;55.932;2023-04-15T11:36:13;2.28;;;1.95;;
78931;SDS011;68331;53.362;55.932;2023-04-15T11:38:45;4.43;;;2.30;;
78931;SDS011;68331;53.362;55.932;2023-04-15T11:41:13;2.35;;;2.05;;
78931;SDS011;68331;53.362;55.932;2023-04-15T11:43:41;4.20;;;2.35;;
78931;SDS011;68331;53.362;55.932;2023-04-15T11:46:08;4.13;;;2.53;;
78931;SDS011;68331;53.362;55.932;2023-04-15T11:48:35;3.63;;;2.28;;
78931;SDS011;68331;53.362;55.932;2023-04-15T11:51:07;4.70;;;3.20;;
78931;SDS011;68331;53.362;55.932;2023-04-15T11:53:37;2.63;;;2.00;;
78931;SDS011;68331;53.362;55.932;2023-04-15T11:58:44;2.95;;;1.77;;
78931;SDS011;68331;53.362;55.932;2023-04-15T12:01:11;6.35;;;2.25;;
78931;SDS011;68331;53.362;55.932;2023-04-15T12:03:41;2.55;;;2.05;;
78931;SDS011;68331;53.362;55.932;2023-04-15T12:06:22;3.78;;;2.10;;
78931;SDS011;68331;53.362;55.932;2023-04-15T12:08:56;2.55;;;2.35;;
78931;SDS011;68331;53.362;55.932;2023-04-15T12:13:53;2.50;;;2.28;;
78931;SDS011;68331;53.362;55.932;2023-04-15T12:16:21;2.38;;;2.08;;
78931;SDS011;68331;53.362;55.932;2023-04-15T12:18:52;2.38;;;1.95;;
78931;SDS011;68331;53.362;55.932;2023-04-15T12:21:21;3.17;;;2.38;;
78931;SDS011;68331;53.362;55.932;2023-04-15T12:23:53;4.00;;;1.95;;
78931;SDS011;68331;53.362;55.932;2023-04-15T12:26:25;2.88;;;2.13;;
78931;SDS011;68331;53.362;55.932;2023-04-15T12:28:54;4.35;;;2.90;;
78931;SDS011;68331;53.362;55.932;2023-04-15T12:31:25;2.05;;;1.75;;
78931;SDS011;68331;53.362;55.932;2023-04-15T12:33:53;3.15;;;2.28;;
78931;SDS011;68331;53.362;55.932;2023-04-15T12:36:21;3.08;;;2.10;;
78931;SDS011;68331;53.362;55.932;2023-04-15T12:38:47;3.70;;;2.25;;
78931;SDS011;68331;53.362;55.932;2023-04-15T12:41:14;3.42;;;2.05;;
78931;SDS011;68331;53.362;55.932;2023-04-15T12:43:43;1.77;;;1.63;;
78931;SDS011;68331;53.362;55.932;2023-04-15T12:46:10;2.53;;;1.73;;
78931;SDS011;68331;53.362;55.932;2023-04-15T12:48:37;1.92;;;1.83;;
78931;SDS011;68331;53.362;55.932;2023-04-15T12:51:03;2.97;;;1.92;;
78931;SDS011;68331;53.362;55.932;2023-04-15T12:53:29;2.63;;;2.28;;
78931;SDS011;68331;53.362;55.932;2023-04-15T12:55:55;4.97;;;3.08;;
78931;SDS011;68331;53.362;55.932;2023-04-15T12:58:21;6.25;;;2.83;;
78931;SDS011;68331;53.362;55.932;2023-04-15T13:00:47;8.73;;;3.22;;
78931;SDS011;68331;53.362;55.932;2023-04-15T13:03:14;9.07;;;3.20;;
78931;SDS011;68331;53.362;55.932;2023-04-15T13:05:41;2.72;;;2.33;;
78931;SDS011;68331;53.362;55.932;2023-04-15T13:08:07;8.52;;;2.75;;
78931;SDS011;68331;53.362;55.932;2023-04-15T13:10:36;3.97;;;2.55;;
78931;SDS011;68331;53.362;55.932;2023-04-15T13:13:03;4.63;;;2.28;;
78931;SDS011;68331;53.362;55.932;2023-04-15T13:15:30;5.97;;;2.78;;
78931;SDS011;68331;53.362;55.932;2023-04-15T13:17:56;5.50;;;3.10;;
78931;SDS011;68331;53.362;55.932;2023-04-15T13:20:24;6.03;;;2.75;;
78931;SDS011;68331;53.362;55.932;2023-04-15T13:22:51;2.75;;;2.08;;
78931;SDS011;68331;53.362;55.932;2023-04-15T13:25:18;4.55;;;2.25;;
78931;SDS011;68331;53.362;55.932;2023-04-15T13:30:11;4.07;;;2.10;;
78931;SDS011;68331;53.362;55.932;2023-04-15T13:32:37;4.22;;;2.38;;
78931;SDS011;68331;53.362;55.932;2023-04-15T13:35:03;2.45;;;2.00;;
78931;SDS011;68331;53.362;55.932;2023-04-15T13:37:30;3.05;;;2.20;;
78931;SDS011;68331;53.362;55.932;2023-04-15T13:39:56;6.80;;;2.47;;
78931;SDS011;68331;53.362;55.932;2023-04-15T13:42:22;6.80;;;2.63;;
78931;SDS011;68331;53.362;55.932;2023-04-15T13:45:02;6.30;;;2.45;;
78931;SDS011;68331;53.362;55.932;2023-04-15T13:47:30;5.43;;;2.15;;
78931;SDS011;68331;53.362;55.932;2023-04-15T13:49:56;8.82;;;2.45;;
78931;SDS011;68331;53.362;55.932;2023-04-15T13:52:22;12.93;;;5.63;;
78931;SDS011;68331;53.362;55.932;2023-04-15T13:54:48;4.97;;;2.72;;
78931;SDS011;68331;53.362;55.932;2023-04-15T13:57:15;12.07;;;2.85;;
78931;SDS011;68331;53.362;55.932;2023-04-15T13:59:41;2.78;;;2.45;;
78931;SDS011;68331;53.362;55.932;2023-04-15T14:04:53;14.32;;;2.60;;
78931;SDS011;68331;53.362;55.932;2023-04-15T14:07:19;8.38;;;3.17;;
78931;SDS011;68331;53.362;55.932;2023-04-15T14:09:45;4.75;;;2.33;;
78931;SDS011;68331;53.362;55.932;2023-04-15T14:12:18;10.00;;;2.65;;
78931;SDS011;68331;53.362;55.932;2023-04-15T14:14:44;4.20;;;2.22;;
78931;SDS011;68331;53.362;55.932;2023-04-15T14:17:10;5.28;;;3.70;;
78931;SDS011;68331;53.362;55.932;2023-04-15T14:19:36;3.30;;;2.50;;
78931;SDS011;68331;53.362;55.932;2023-04-15T14:22:03;4.78;;;2.55;;
78931;SDS011;68331;53.362;55.932;2023-04-15T14:24:29;9.75;;;2.70;;
78931;SDS011;68331;53.362;55.932;2023-04-15T14:26:55;2.80;;;1.73;;
78931;SDS011;68331;53.362;55.932;2023-04-15T14:29:23;3.92;;;2.40;;
78931;SDS011;68331;53.362;55.932;2023-04-15T14:31:49;6.20;;;2.53;;
78931;SDS011;68331;53.362;55.932;2023-04-15T14:34:16;2.72;;;2.53;;
78931;SDS011;68331;53.362;55.932;2023-04-15T14:36:42;2.85;;;2.65;;
78931;SDS011;68331;53.362;55.932;2023-04-15T14:39:09;4.00;;;2.15;;
78931;SDS011;68331;53.362;55.932;2023-04-15T14:41:35;5.43;;;2.70;;
78931;SDS011;68331;53.362;55.932;2023-04-15T14:44:02;3.22;;;2.42;;
78931;SDS011;68331;53.362;55.932;2023-04-15T14:46:28;7.22;;;2.50;;
78931;SDS011;68331;53.362;55.932;2023-04-15T14:48:54;3.00;;;2.17;;
78931;SDS011;68331;53.362;55.932;2023-04-15T14:51:21;5.88;;;2.33;;
78931;SDS011;68331;53.362;55.932;2023-04-15T14:53:47;4.22;;;2.53;;
78931;SDS011;68331;53.362;55.932;2023-04-15T14:56:13;2.75;;;2.13;;
78931;SDS011;68331;53.362;55.932;2023-04-15T14:58:39;2.63;;;2.40;;
78931;SDS011;68331;53.362;55.932;2023-04-15T15:01:05;3.45;;;2.25;;
78931;SDS011;68331;53.362;55.932;2023-04-15T15:03:31;5.57;;;2.58;;
78931;SDS011;68331;53.362;55.932;2023-04-15T15:05:58;3.50;;;2.38;;
78931;SDS011;68331;53.362;55.932;2023-04-15T15:08:24;3.42;;;2.63;;
78931;SDS011;68331;53.362;55.932;2023-04-15T15:10:52;3.50;;;2.60;;
78931;SDS011;68331;53.362;55.932;2023-04-15T15:13:18;4.10;;;2.38;;
78931;SDS011;68331;53.362;55.932;2023-04-15T15:15:44;9.00;;;7.20;;
78931;SDS011;68331;53.362;55.932;2023-04-15T15:18:10;13.50;;;6.47;;
78931;SDS011;68331;53.362;55.932;2023-04-15T15:21:35;13.18;;;6.88;;
78931;SDS011;68331;53.362;55.932;2023-04-15T15:24:01;11.50;;;5.05;;
78931;SDS011;68331;53.362;55.932;2023-04-15T15:26:27;11.90;;;4.53;;
78931;SDS011;68331;53.362;55.932;2023-04-15T15:28:54;4.93;;;4.47;;
78931;SDS011;68331;53.362;55.932;2023-04-15T15:31:20;4.00;;;3.38;;